Kimberley, Canada
Current Conditions -  °F | °C
As of 6:00 PM on Saturday 20 Dec 2014 (Local Time) from CYXC Reporting Station
Light Snow Light Snow  
Wind Chill:   Ceiling: 3000
Heat Index:   Visibility: 15mi
Dew Point: -1°   Wind: 3mph
Humidity: 93%   Direction: 260°W
Pressure: 29.67"   Gusts: NA
Location:  49.68°N, 115.98°W
Report Text: CYXC 210100Z 26003KT 220V310 15SM -SN BKN030 OVC040 00/M01 A2967 RMK SC5SC3 SLP073
Loading
Personal Weather Stations






























Interactive Weather Map New forecast layout! Learn more

10-Day Weather Forecast

Advertisements
Track Severe Weather on mobile